Latest Coastal Weather Observations for East Sale

IDV60701

Issued at 4:21 am EDT Saturday 20 December 2014 (issued every 10 minutes, with the page automatically refreshed every 10 minutes)

About coastal observations | Map of coastal stations | Coastal observations for VIC | Marine services | Other Formats
Station Details ID: 085072 Name: EAST SALE AIRPORT Lat: -38.12 Lon: 147.13 Height: 4.6 m
Data from the previous 72 hours. | See also: Recent months at East Sale
Date/Time
EDT
Temp

°C
Wind Pressure Rain
since 9am
mm
Weather Cloud Vis
km
Sea
Height
m
Swell
Dir
 
Speed
knots
Gust
knots
hPa Trend Height
m
Period
s
Dir
20/04:00am 9.5 W 5 6 1017.8 - 0.4 - - 10 - - - -
20/03:30am 9.6 W 7 8 1017.9 - 0.4 - - 10 - - - -
20/03:00am 9.4 WNW 6 7 1018.0 F 0.4 - - 10 - - - -
20/02:30am 9.2 W 5 6 1018.2 - 0.4 - - 10 - - - -
20/02:00am 9.7 WSW 5 6 1018.5 - 0.4 - - 10 - - - -
20/01:30am 9.8 WSW 6 7 1018.7 - 0.4 - - 10 - - - -
20/01:00am 10.3 W 6 7 1018.9 - 0.4 - - 10 - - - -
20/12:30am 10.5 WNW 6 7 1019.3 - 0.4 - - 10 - - - -
 
Date/Time
EDT
Temp

°C
Wind Pressure Rain
since 9am
mm
Weather Cloud Vis
km
Sea
Height
m
Swell
Dir
 
Speed
knots
Gust
knots
hPa Trend Height
m
Period
s
Dir
19/11:30pm 11.7 WNW 5 7 1019.7 - 0.4 - Partly cloudy 10 - - - -
19/11:00pm 12.6 WSW 7 9 1019.8 - 0.4 - Partly cloudy 10 - - - -
19/10:30pm 13.0 WSW 8 9 1019.6 - 0.4 - - 10 - - - -
19/10:00pm 13.3 WSW 8 10 1019.4 - 0.4 - - 10 - - - -
19/09:30pm 13.6 WSW 6 7 1019.0 - 0.4 - - 10 - - - -
19/09:00pm 14.4 WSW 7 9 1018.8 R 0.4 - - 10 - - - -
19/08:30pm 15.7 WSW 8 11 1018.5 - 0.4 - - 10 - - - -
19/08:00pm 16.9 WSW 9 15 1018.2 - 0.4 - - 10 - - - -
19/07:30pm 17.8 WSW 12 19 1017.8 - 0.4 - - 10 - - - -
19/07:00pm 18.4 W 15 19 1017.4 - 0.4 - - 10 - - - -
19/06:30pm 19.0 W 13 19 1017.0 - 0.4 - Partly cloudy 10 - - - -
19/06:00pm 18.4 WSW 7 11 1016.7 R 0.4 - Cloudy 10 - - - -
19/05:30pm 19.3 SW 10 13 1016.5 - 0.4 - Partly cloudy 10 - - - -
19/05:00pm 18.6 SW 11 15 1016.3 - 0.4 - Partly cloudy 10 - - - -
19/04:30pm 19.1 SW 9 14 1016.2 - 0.4 - Partly cloudy 10 - - - -
19/04:00pm 18.3 SSW 11 14 1016.3 - 0.4 - Partly cloudy 10 - - - -
19/03:30pm 19.7 W 9 14 1016.3 - 0.4 - Partly cloudy 10 - - - -
19/03:00pm 19.5 WSW 6 9 1016.3 R 0.4 Fine Partly cloudy 25 - - - -
19/02:30pm 17.7 WSW 7 9 1016.3 - 0.4 - Partly cloudy 10 - - - -
19/02:00pm 17.3 SW 11 18 1016.4 - 0.4 - Partly cloudy 10 - - - -
19/01:30pm 18.3 SW 10 15 1016.0 - 0.4 - Partly cloudy 10 - - - -
19/01:00pm 17.3 WSW 12 18 1016.3 - 0.4 - Partly cloudy 10 - - - -
19/12:30pm 16.8 WSW 17 23 1016.5 - 0.4 - Partly cloudy 10 - - - -
19/12:00pm 16.6 WSW 10 17 1016.5 R 0.4 Recent precip. Mostly cloudy 10 - - - -
19/11:30am 16.5 SW 7 9 1016.3 - 0.4 - Partly cloudy 10 - - - -
19/11:00am 14.5 W 15 18 1016.0 - 0.0 - Partly cloudy 10 - - - -
19/10:30am 17.2 W 9 11 1015.8 - 0.0 - Partly cloudy 10 - - - -
19/10:00am 16.3 W 12 16 1015.7 - 0.0 - Partly cloudy 10 - - - -
19/09:30am 15.5 W 14 19 1015.8 - 0.0 - - 10 - - - -
19/09:00am 14.8 W 13 17 1015.7 R 8.6 Haze Partly cloudy 12 - - - -
19/08:30am 14.1 W 12 17 1015.5 - 8.6 - Partly cloudy 10 - - - -
19/08:00am 13.4 W 12 17 1015.1 - 8.6 - Partly cloudy 10 - - - -
19/07:30am 13.0 W 11 14 1014.7 - 8.6 - Partly cloudy 10 - - - -
19/07:00am 12.3 W 11 14 1014.3 - 8.6 - Partly cloudy 10 - - - -
19/06:30am 12.0 W 9 12 1014.0 - 8.6 - Partly cloudy 10 - - - -
19/06:00am 11.0 W 7 11 1014.0 R 8.6 - Mostly clear 10 - - - -
19/05:30am 11.3 W 8 10 1013.7 - 8.6 - Partly cloudy 10 - - - -
19/05:00am 11.4 WNW 7 8 1013.4 - 8.6 - Partly cloudy 10 - - - -
19/04:30am 10.6 WNW 9 11 1013.0 - 8.6 - - 10 - - - -
19/04:00am 10.6 WNW 7 8 1012.9 - 8.6 - - 10 - - - -
19/03:30am 10.8 W 7 9 1012.5 - 8.6 - - 10 - - - -
19/03:00am 11.4 W 8 11 1012.4 R 8.6 - Mostly clear 10 - - - -
19/02:30am 12.1 W 11 13 1012.3 - 8.6 - Partly cloudy 10 - - - -
19/02:00am 11.9 W 10 13 1012.3 - 8.6 - - 10 - - - -
19/01:30am 12.2 W 11 13 1012.2 - 8.6 - - 10 - - - -
19/01:00am 12.7 W 13 16 1012.2 - 8.6 - Partly cloudy 10 - - - -
19/12:30am 12.7 W 12 16 1012.2 - 8.6 - Partly cloudy 10 - - - -
19/12:00am 12.6 W 11 14 1012.0 R 8.6 - Mostly clear 10 - - - -
 
Date/Time
EDT
Temp

°C
Wind Pressure Rain
since 9am
mm
Weather Cloud Vis
km
Sea
Height
m
Swell
Dir
 
Speed
knots
Gust
knots
hPa Trend Height
m
Period
s
Dir
18/11:30pm 12.2 W 7 9 1012.2 - 8.6 - Partly cloudy 10 - - - -
18/11:00pm 12.8 W 9 13 1012.0 - 8.6 - - 10 - - - -
18/10:30pm 12.7 WSW 8 10 1011.9 - 8.6 - Partly cloudy 10 - - - -
18/10:00pm 13.1 W 11 16 1011.7 - 8.6 - Partly cloudy 10 - - - -
18/09:30pm 13.5 W 18 23 1011.0 - 8.6 - Partly cloudy 10 - - - -
18/09:00pm 13.5 W 13 19 1010.6 R 8.6 Recent precip. Cloudy 10 - - - -
18/08:30pm 13.5 W 9 15 1010.1 - 8.6 - Partly cloudy 10 - - - -
18/08:00pm 13.4 W 8 12 1009.8 - 8.4 - - 10 - - - -
18/07:30pm 13.6 W 14 22 1009.7 - 7.4 - - 9 - - - -
18/07:17pm 13.8 W 15 26 1009.7 - 6.2 - - 10 - - - -
18/07:08pm 14.1 WSW 16 25 1009.5 - 5.6 - Partly cloudy 10 - - - -
18/07:00pm 14.5 W 17 30 1009.2 - 5.2 - Partly cloudy 8 - - - -
18/06:53pm 14.9 W 15 30 1008.7 - 4.8 - - 5 - - - -
18/06:47pm 15.3 SW 11 16 1008.5 - 3.4 - - 6 - - - -
18/06:37pm 15.6 S 11 16 1007.4 - 2.0 - - 10 - - - -
18/06:30pm 15.8 SSE 14 23 1006.9 - 2.0 - - 10 - - - -
18/06:20pm 16.0 S 14 20 1006.5 - 1.6 - Partly cloudy 5 - - - -
18/06:00pm 19.6 SSW 5 6 1005.3 R 0.0 - Mostly cloudy 10 - - - -
18/05:30pm 21.8 WSW 9 11 1005.2 - 0.0 - Partly cloudy 10 - - - -
18/05:00pm 22.5 W 11 16 1005.1 - 0.0 - Partly cloudy 10 - - - -
18/04:30pm 22.9 W 8 15 1004.8 - 0.0 - - 10 - - - -
18/04:00pm 22.1 SE 7 13 1004.8 - 0.0 - - 10 - - - -
18/03:30pm 21.2 SSE 12 18 1004.8 - 0.0 - - 10 - - - -
18/03:00pm 20.6 SSE 14 22 1004.4 R 0.0 Fine Mostly cloudy 30 - - - -
18/02:30pm 24.7 WSW 13 20 1003.8 - 0.0 - Partly cloudy 10 - - - -
18/02:00pm 24.9 WSW 14 19 1003.7 - 0.0 - - 10 - - - -
18/01:30pm 26.0 WSW 12 17 1003.5 - 0.0 - Partly cloudy 10 - - - -
18/01:00pm 26.6 SW 11 18 1003.3 - 0.0 - Partly cloudy 10 - - - -
18/12:37pm 25.2 WNW 11 24 1003.4 - 0.0 - - 10 - - - -
18/12:30pm 25.1 WSW 7 13 1003.7 - 0.0 - - 10 - - - -
18/12:00pm 24.1 WSW 6 11 1003.8 F 0.0 - - 10 - - - -
18/11:30am 23.9 W 5 9 1004.1 - 0.0 - - 10 - - - -
18/11:00am 23.0 NNW 5 9 1004.4 - 0.0 - - 10 - - - -
18/10:30am 21.8 N 5 8 1004.8 - 0.0 - - 10 - - - -
18/10:00am 20.0 N 2 6 1005.2 - 0.0 - - 10 - - - -
18/09:30am 18.3 NNW 4 6 1005.5 - 0.0 - - 10 - - - -
18/09:00am 16.7 N 5 6 1005.9 F 0.0 Haze Clear 15 - - - -
18/08:30am 15.0 NNW 4 5 1006.3 - 0.0 - - 10 - - - -
18/08:00am 13.5 NW 4 5 1006.5 - 0.0 - - 10 - - - -
18/07:30am 12.5 NNW 5 6 1006.5 - 0.0 - - 10 - - - -
18/07:00am 12.0 NW 3 5 1006.5 - 0.0 - - 10 - - - -
18/06:30am 10.7 CALM 0 0 1006.4 - 0.0 - - 10 - - - -
18/06:00am 8.6 NW 5 6 1006.5 F 0.0 - - 10 - - - -
18/05:30am 9.4 NW 4 5 1006.3 - 0.0 - - 10 - - - -
18/05:00am 9.4 NE 4 5 1006.3 - 0.0 - - 10 - - - -
18/04:30am 9.5 NE 5 6 1006.2 - 0.0 - - 10 - - - -
18/04:00am 9.5 NE 4 5 1006.5 - 0.0 - - 10 - - - -
18/03:30am 9.3 NE 6 7 1006.6 - 0.0 - - 10 - - - -
18/03:00am 9.4 NE 7 8 1006.9 F 0.0 - Partly cloudy 10 - - - -
18/02:30am 9.8 NE 7 7 1007.5 - 0.0 - - 10 - - - -
18/02:00am 10.7 NE 6 7 1007.9 - 0.0 - - 10 - - - -
18/01:30am 9.5 NE 6 7 1008.2 - 0.0 - - 10 - - - -
18/01:00am 9.8 NE 7 8 1008.8 - 0.0 - - 10 - - - -
18/12:30am 9.9 NE 6 6 1009.3 - 0.0 - - 10 - - - -
18/12:00am 10.5 NE 6 7 1009.5 F 0.0 - - 10 - - - -
 
Date/Time
EDT
Temp

°C
Wind Pressure Rain
since 9am
mm
Weather Cloud Vis
km
Sea
Height
m
Swell
Dir
 
Speed
knots
Gust
knots
hPa Trend Height
m
Period
s
Dir
17/11:30pm 10.9 NE 6 7 1009.8 - 0.0 - - 10 - - - -
17/11:00pm 11.7 NE 7 8 1010.1 - 0.0 - - 10 - - - -
17/10:30pm 11.9 NE 5 6 1010.3 - 0.0 - - 10 - - - -
17/10:00pm 12.1 NE 6 6 1010.6 - 0.0 - - 10 - - - -
17/09:30pm 12.7 ENE 6 7 1010.5 - 0.0 - - 10 - - - -
17/09:00pm 13.3 E 7 8 1010.1 S 0.0 - Mostly clear 10 - - - -
17/08:30pm 14.6 ESE 7 9 1010.2 - 0.0 - Cloudy 10 - - - -
17/08:00pm 15.2 ESE 8 10 1009.9 - 0.0 - Partly cloudy 10 - - - -
17/07:30pm 15.5 ESE 9 11 1009.5 - 0.0 - Partly cloudy 10 - - - -
17/07:00pm 16.0 SE 11 15 1009.2 - 0.0 - Cloudy 10 - - - -
17/06:30pm 16.6 SE 12 15 1008.9 - 0.0 - Cloudy 10 - - - -
17/06:00pm 16.8 SE 10 14 1008.6 R 0.0 - Cloudy 10 - - - -
17/05:30pm 17.0 SE 13 17 1008.3 - 0.0 - Partly cloudy 10 - - - -
17/05:00pm 17.3 ESE 14 20 1008.2 - 0.0 - Cloudy 10 - - - -
17/04:30pm 18.0 SE 14 19 1008.2 - 0.0 - Partly cloudy 10 - - - -
17/04:00pm 20.1 SW 6 9 1007.9 - 0.0 - - 10 - - - -
17/03:30pm 19.8 S 7 11 1008.1 - 0.0 - Partly cloudy 10 - - - -
17/03:00pm 20.3 SW 9 14 1008.4 R 0.0 Fine Partly cloudy 30 - - - -
17/02:30pm 19.8 SW 10 15 1008.6 - 0.0 - Partly cloudy 10 - - - -
17/02:00pm 18.7 W 10 14 1008.7 - 0.0 - Partly cloudy 10 - - - -
17/01:30pm 18.6 WSW 11 15 1009.0 - 0.0 - Cloudy 10 - - - -
17/01:00pm 17.3 WSW 12 17 1009.2 - 0.0 - Partly cloudy 10 - - - -
17/12:30pm 18.4 SW 9 14 1009.1 - 0.0 - Partly cloudy 10 - - - -
17/12:00pm 17.8 WSW 10 15 1009.1 R 0.0 - Mostly cloudy 10 - - - -
17/11:30am 17.9 W 10 15 1008.9 - 0.0 - Partly cloudy 10 - - - -
17/11:00am 16.4 WSW 10 14 1009.0 - 0.0 - Partly cloudy 10 - - - -
17/10:30am 16.6 SW 10 14 1008.9 - 0.0 - Partly cloudy 10 - - - -
17/10:00am 16.9 WSW 12 20 1008.5 - 0.0 - Partly cloudy 10 - - - -
17/09:30am 16.7 W 15 21 1008.6 - 0.0 - - 10 - - - -
17/09:00am 15.4 W 15 21 1008.3 R 0.0 Fine Mostly clear 25 - - - -
17/08:30am 14.6 W 15 20 1008.2 - 0.0 - - 10 - - - -
17/08:00am 13.9 W 12 17 1007.9 - 0.0 - - 10 - - - -
17/07:30am 13.1 W 10 14 1007.5 - 0.0 - Partly cloudy 10 - - - -
17/07:00am 12.1 W 8 10 1007.3 - 0.0 - Partly cloudy 10 - - - -
17/06:30am 11.5 W 9 11 1007.0 - 0.0 - - 10 - - - -
17/06:00am 10.8 W 8 9 1006.6 R 0.0 - - 10 - - - -
17/05:30am 10.3 WNW 9 11 1006.2 - 0.0 - - 10 - - - -
17/05:00am 9.9 WSW 7 9 1005.7 - 0.0 - - 10 - - - -
17/04:30am 11.0 WNW 8 10 1005.5 - 0.0 - Partly cloudy 10 - - - -

Other Formats:

Comma delimited format used in spreadsheet applications
http://www.bom.gov.au/fwo/IDV60701/IDV60701.94907.axf

JavaScript Object Notation format (JSON) in row-major order
http://www.bom.gov.au/fwo/IDV60701/IDV60701.94907.json